sensor_id;sensor_type;location;lat;lon;timestamp;P1;durP1;ratioP1;P2;durP2;ratioP2
2049;SDS011;8478;49.208;8.806;2023-04-02T00:02:44;3.00;;;2.80;;
2049;SDS011;8478;49.208;8.806;2023-04-02T00:07:42;2.60;;;2.40;;
2049;SDS011;8478;49.208;8.806;2023-04-02T00:10:29;2.77;;;2.57;;
2049;SDS011;8478;49.208;8.806;2023-04-02T00:13:03;2.80;;;2.60;;
2049;SDS011;8478;49.208;8.806;2023-04-02T00:15:43;2.97;;;2.77;;
2049;SDS011;8478;49.208;8.806;2023-04-02T00:18:14;4.60;;;2.53;;
2049;SDS011;8478;49.208;8.806;2023-04-02T00:20:43;2.70;;;2.50;;
2049;SDS011;8478;49.208;8.806;2023-04-02T00:23:12;2.30;;;2.20;;
2049;SDS011;8478;49.208;8.806;2023-04-02T00:25:40;3.10;;;2.90;;
2049;SDS011;8478;49.208;8.806;2023-04-02T00:28:13;2.60;;;2.50;;
2049;SDS011;8478;49.208;8.806;2023-04-02T00:30:45;2.50;;;2.30;;
2049;SDS011;8478;49.208;8.806;2023-04-02T00:33:16;2.57;;;2.37;;
2049;SDS011;8478;49.208;8.806;2023-04-02T00:35:43;3.50;;;2.50;;
2049;SDS011;8478;49.208;8.806;2023-04-02T00:38:24;2.57;;;2.47;;
2049;SDS011;8478;49.208;8.806;2023-04-02T00:40:54;3.50;;;2.60;;
2049;SDS011;8478;49.208;8.806;2023-04-02T00:43:23;3.00;;;2.80;;
2049;SDS011;8478;49.208;8.806;2023-04-02T00:45:56;2.60;;;2.50;;
2049;SDS011;8478;49.208;8.806;2023-04-02T00:51:15;3.87;;;2.83;;
2049;SDS011;8478;49.208;8.806;2023-04-02T00:53:51;2.53;;;2.40;;
2049;SDS011;8478;49.208;8.806;2023-04-02T00:56:38;3.10;;;2.90;;
2049;SDS011;8478;49.208;8.806;2023-04-02T01:01:52;2.70;;;2.60;;
2049;SDS011;8478;49.208;8.806;2023-04-02T01:04:34;2.77;;;2.57;;
2049;SDS011;8478;49.208;8.806;2023-04-02T01:07:04;2.60;;;2.50;;
2049;SDS011;8478;49.208;8.806;2023-04-02T01:15:35;2.80;;;2.60;;
2049;SDS011;8478;49.208;8.806;2023-04-02T01:26:25;2.87;;;2.60;;
2049;SDS011;8478;49.208;8.806;2023-04-02T01:29:12;3.20;;;3.00;;
2049;SDS011;8478;49.208;8.806;2023-04-02T01:32:02;2.90;;;2.70;;
2049;SDS011;8478;49.208;8.806;2023-04-02T01:34:40;2.53;;;2.43;;
2049;SDS011;8478;49.208;8.806;2023-04-02T01:42:41;2.77;;;2.57;;
2049;SDS011;8478;49.208;8.806;2023-04-02T01:45:14;2.30;;;2.20;;
2049;SDS011;8478;49.208;8.806;2023-04-02T01:47:43;2.80;;;2.60;;
2049;SDS011;8478;49.208;8.806;2023-04-02T01:50:22;2.50;;;2.40;;
2049;SDS011;8478;49.208;8.806;2023-04-02T01:52:49;2.50;;;2.40;;
2049;SDS011;8478;49.208;8.806;2023-04-02T01:55:19;3.13;;;2.93;;
2049;SDS011;8478;49.208;8.806;2023-04-02T01:57:55;2.53;;;2.33;;
2049;SDS011;8478;49.208;8.806;2023-04-02T02:00:22;2.50;;;2.40;;
2049;SDS011;8478;49.208;8.806;2023-04-02T02:02:49;2.57;;;2.47;;
2049;SDS011;8478;49.208;8.806;2023-04-02T02:05:17;2.37;;;2.27;;
2049;SDS011;8478;49.208;8.806;2023-04-02T02:07:46;2.23;;;2.13;;
2049;SDS011;8478;49.208;8.806;2023-04-02T02:10:14;2.30;;;2.20;;
2049;SDS011;8478;49.208;8.806;2023-04-02T02:12:43;2.80;;;2.50;;
2049;SDS011;8478;49.208;8.806;2023-04-02T02:15:17;2.50;;;2.40;;
2049;SDS011;8478;49.208;8.806;2023-04-02T02:17:45;2.57;;;2.37;;
2049;SDS011;8478;49.208;8.806;2023-04-02T02:20:11;2.53;;;2.37;;
2049;SDS011;8478;49.208;8.806;2023-04-02T02:22:47;2.60;;;2.50;;
2049;SDS011;8478;49.208;8.806;2023-04-02T02:25:19;2.50;;;2.30;;
2049;SDS011;8478;49.208;8.806;2023-04-02T02:30:28;2.57;;;2.37;;
2049;SDS011;8478;49.208;8.806;2023-04-02T02:35:59;2.40;;;2.20;;
2049;SDS011;8478;49.208;8.806;2023-04-02T02:41:36;2.33;;;2.10;;
2049;SDS011;8478;49.208;8.806;2023-04-02T02:46:32;2.30;;;2.10;;
2049;SDS011;8478;49.208;8.806;2023-04-02T02:49:02;2.40;;;2.20;;
2049;SDS011;8478;49.208;8.806;2023-04-02T02:51:43;2.47;;;2.33;;
2049;SDS011;8478;49.208;8.806;2023-04-02T02:54:16;2.60;;;2.50;;
2049;SDS011;8478;49.208;8.806;2023-04-02T02:56:46;2.60;;;2.40;;
2049;SDS011;8478;49.208;8.806;2023-04-02T02:59:16;2.80;;;2.60;;
2049;SDS011;8478;49.208;8.806;2023-04-02T03:01:43;2.80;;;2.60;;
2049;SDS011;8478;49.208;8.806;2023-04-02T03:04:09;2.70;;;2.50;;
2049;SDS011;8478;49.208;8.806;2023-04-02T03:06:35;2.60;;;2.40;;
2049;SDS011;8478;49.208;8.806;2023-04-02T03:09:03;2.70;;;2.60;;
2049;SDS011;8478;49.208;8.806;2023-04-02T03:11:52;4.10;;;2.73;;
2049;SDS011;8478;49.208;8.806;2023-04-02T03:19:52;2.70;;;2.50;;
2049;SDS011;8478;49.208;8.806;2023-04-02T03:27:45;2.90;;;2.60;;
2049;SDS011;8478;49.208;8.806;2023-04-02T03:33:09;2.50;;;2.40;;
2049;SDS011;8478;49.208;8.806;2023-04-02T03:36:30;2.73;;;2.53;;
2049;SDS011;8478;49.208;8.806;2023-04-02T03:39:19;3.00;;;2.80;;
2049;SDS011;8478;49.208;8.806;2023-04-02T03:45:20;3.07;;;2.77;;
2049;SDS011;8478;49.208;8.806;2023-04-02T03:47:18;2.93;;;2.73;;
2049;SDS011;8478;49.208;8.806;2023-04-02T03:52:27;2.80;;;2.70;;
2049;SDS011;8478;49.208;8.806;2023-04-02T03:54:57;2.80;;;2.70;;
2049;SDS011;8478;49.208;8.806;2023-04-02T03:57:41;2.70;;;2.50;;
2049;SDS011;8478;49.208;8.806;2023-04-02T04:00:45;2.70;;;2.60;;
2049;SDS011;8478;49.208;8.806;2023-04-02T04:03:19;2.77;;;2.67;;
2049;SDS011;8478;49.208;8.806;2023-04-02T04:08:35;2.40;;;2.30;;
2049;SDS011;8478;49.208;8.806;2023-04-02T04:11:09;2.60;;;2.50;;
2049;SDS011;8478;49.208;8.806;2023-04-02T04:13:42;2.70;;;2.50;;
2049;SDS011;8478;49.208;8.806;2023-04-02T04:16:21;2.70;;;2.50;;
2049;SDS011;8478;49.208;8.806;2023-04-02T04:19:02;2.97;;;2.77;;
2049;SDS011;8478;49.208;8.806;2023-04-02T04:21:33;2.90;;;2.60;;
2049;SDS011;8478;49.208;8.806;2023-04-02T04:24:03;2.57;;;2.40;;
2049;SDS011;8478;49.208;8.806;2023-04-02T04:26:43;2.90;;;2.70;;
2049;SDS011;8478;49.208;8.806;2023-04-02T04:34:44;2.60;;;2.40;;
2049;SDS011;8478;49.208;8.806;2023-04-02T04:37:19;3.00;;;2.73;;
2049;SDS011;8478;49.208;8.806;2023-04-02T04:39:52;2.80;;;2.60;;
2049;SDS011;8478;49.208;8.806;2023-04-02T04:42:28;2.50;;;2.40;;
2049;SDS011;8478;49.208;8.806;2023-04-02T04:48:01;2.80;;;2.60;;
2049;SDS011;8478;49.208;8.806;2023-04-02T04:53:19;2.90;;;2.80;;
2049;SDS011;8478;49.208;8.806;2023-04-02T04:55:47;2.40;;;2.30;;
2049;SDS011;8478;49.208;8.806;2023-04-02T05:01:27;2.73;;;2.60;;
2049;SDS011;8478;49.208;8.806;2023-04-02T05:08:57;2.77;;;2.67;;
2049;SDS011;8478;49.208;8.806;2023-04-02T05:11:35;2.70;;;2.60;;
2049;SDS011;8478;49.208;8.806;2023-04-02T05:14:07;2.73;;;2.57;;
2049;SDS011;8478;49.208;8.806;2023-04-02T05:17:18;2.73;;;2.20;;
2049;SDS011;8478;49.208;8.806;2023-04-02T05:19:42;2.40;;;2.30;;
2049;SDS011;8478;49.208;8.806;2023-04-02T05:22:28;3.07;;;2.87;;
2049;SDS011;8478;49.208;8.806;2023-04-02T05:25:10;3.10;;;2.90;;
2049;SDS011;8478;49.208;8.806;2023-04-02T05:33:32;2.80;;;2.60;;
2049;SDS011;8478;49.208;8.806;2023-04-02T05:36:00;3.03;;;2.83;;
2049;SDS011;8478;49.208;8.806;2023-04-02T05:38:32;3.33;;;2.40;;
2049;SDS011;8478;49.208;8.806;2023-04-02T05:41:06;2.90;;;2.70;;
2049;SDS011;8478;49.208;8.806;2023-04-02T05:43:59;3.03;;;2.83;;
2049;SDS011;8478;49.208;8.806;2023-04-02T05:46:35;2.40;;;2.30;;
2049;SDS011;8478;49.208;8.806;2023-04-02T05:49:08;2.70;;;2.50;;
2049;SDS011;8478;49.208;8.806;2023-04-02T05:51:44;3.10;;;2.87;;
2049;SDS011;8478;49.208;8.806;2023-04-02T05:54:19;3.20;;;3.00;;
2049;SDS011;8478;49.208;8.806;2023-04-02T05:56:56;2.63;;;2.43;;
2049;SDS011;8478;49.208;8.806;2023-04-02T05:59:28;3.30;;;3.07;;
2049;SDS011;8478;49.208;8.806;2023-04-02T06:02:26;2.63;;;2.43;;
2049;SDS011;8478;49.208;8.806;2023-04-02T06:10:12;2.80;;;2.60;;
2049;SDS011;8478;49.208;8.806;2023-04-02T06:12:48;3.07;;;2.83;;
2049;SDS011;8478;49.208;8.806;2023-04-02T06:15:29;3.33;;;3.03;;
2049;SDS011;8478;49.208;8.806;2023-04-02T06:20:32;3.10;;;2.90;;
2049;SDS011;8478;49.208;8.806;2023-04-02T06:26:02;3.10;;;2.90;;
2049;SDS011;8478;49.208;8.806;2023-04-02T06:28:34;2.93;;;2.73;;
2049;SDS011;8478;49.208;8.806;2023-04-02T06:31:08;3.47;;;3.20;;
2049;SDS011;8478;49.208;8.806;2023-04-02T06:33:37;3.07;;;2.87;;
2049;SDS011;8478;49.208;8.806;2023-04-02T06:36:03;2.67;;;2.57;;
2049;SDS011;8478;49.208;8.806;2023-04-02T06:38:30;2.90;;;2.70;;
2049;SDS011;8478;49.208;8.806;2023-04-02T06:40:58;3.00;;;2.80;;
2049;SDS011;8478;49.208;8.806;2023-04-02T06:43:33;3.00;;;2.80;;
2049;SDS011;8478;49.208;8.806;2023-04-02T06:46:11;2.87;;;2.70;;
2049;SDS011;8478;49.208;8.806;2023-04-02T06:49:00;3.20;;;3.00;;
2049;SDS011;8478;49.208;8.806;2023-04-02T06:51:37;3.00;;;2.80;;
2049;SDS011;8478;49.208;8.806;2023-04-02T06:54:04;3.17;;;2.97;;
2049;SDS011;8478;49.208;8.806;2023-04-02T06:59:10;3.10;;;2.90;;
2049;SDS011;8478;49.208;8.806;2023-04-02T07:01:44;3.33;;;3.13;;
2049;SDS011;8478;49.208;8.806;2023-04-02T07:04:39;3.10;;;2.80;;
2049;SDS011;8478;49.208;8.806;2023-04-02T07:07:05;3.50;;;3.27;;
2049;SDS011;8478;49.208;8.806;2023-04-02T07:09:30;3.27;;;3.07;;
2049;SDS011;8478;49.208;8.806;2023-04-02T07:11:56;2.80;;;2.70;;
2049;SDS011;8478;49.208;8.806;2023-04-02T07:14:22;3.10;;;2.90;;
2049;SDS011;8478;49.208;8.806;2023-04-02T07:16:48;2.70;;;2.60;;
2049;SDS011;8478;49.208;8.806;2023-04-02T07:19:16;3.40;;;3.10;;
2049;SDS011;8478;49.208;8.806;2023-04-02T07:21:44;2.87;;;2.77;;
2049;SDS011;8478;49.208;8.806;2023-04-02T07:24:10;2.90;;;2.80;;
2049;SDS011;8478;49.208;8.806;2023-04-02T07:26:35;3.07;;;2.87;;
2049;SDS011;8478;49.208;8.806;2023-04-02T07:29:02;2.87;;;2.77;;
2049;SDS011;8478;49.208;8.806;2023-04-02T07:31:31;3.20;;;3.00;;
2049;SDS011;8478;49.208;8.806;2023-04-02T07:33:57;3.00;;;2.80;;
2049;SDS011;8478;49.208;8.806;2023-04-02T07:36:24;2.70;;;2.60;;
2049;SDS011;8478;49.208;8.806;2023-04-02T07:38:52;2.93;;;2.73;;
2049;SDS011;8478;49.208;8.806;2023-04-02T07:41:18;3.20;;;3.00;;
2049;SDS011;8478;49.208;8.806;2023-04-02T07:43:44;3.20;;;3.00;;
2049;SDS011;8478;49.208;8.806;2023-04-02T07:46:11;2.80;;;2.70;;
2049;SDS011;8478;49.208;8.806;2023-04-02T07:48:40;2.83;;;2.73;;
2049;SDS011;8478;49.208;8.806;2023-04-02T07:51:22;3.10;;;2.90;;
2049;SDS011;8478;49.208;8.806;2023-04-02T07:53:50;3.20;;;3.00;;
2049;SDS011;8478;49.208;8.806;2023-04-02T07:56:20;3.30;;;3.10;;
2049;SDS011;8478;49.208;8.806;2023-04-02T07:58:47;3.10;;;2.90;;
2049;SDS011;8478;49.208;8.806;2023-04-02T08:01:14;3.50;;;2.90;;
2049;SDS011;8478;49.208;8.806;2023-04-02T08:03:43;3.00;;;2.80;;
2049;SDS011;8478;49.208;8.806;2023-04-02T08:06:10;2.90;;;2.70;;
2049;SDS011;8478;49.208;8.806;2023-04-02T08:08:36;3.20;;;3.00;;
2049;SDS011;8478;49.208;8.806;2023-04-02T08:11:02;2.60;;;2.50;;
2049;SDS011;8478;49.208;8.806;2023-04-02T08:13:28;2.93;;;2.80;;
2049;SDS011;8478;49.208;8.806;2023-04-02T08:15:57;2.83;;;2.63;;
2049;SDS011;8478;49.208;8.806;2023-04-02T08:18:23;3.30;;;3.10;;
2049;SDS011;8478;49.208;8.806;2023-04-02T08:20:49;2.70;;;2.50;;
2049;SDS011;8478;49.208;8.806;2023-04-02T08:23:16;3.07;;;2.87;;
2049;SDS011;8478;49.208;8.806;2023-04-02T08:25:43;3.20;;;3.00;;
2049;SDS011;8478;49.208;8.806;2023-04-02T08:28:09;2.73;;;2.53;;
2049;SDS011;8478;49.208;8.806;2023-04-02T08:30:35;3.00;;;2.80;;
2049;SDS011;8478;49.208;8.806;2023-04-02T08:33:01;2.70;;;2.60;;
2049;SDS011;8478;49.208;8.806;2023-04-02T08:35:28;2.87;;;2.67;;
2049;SDS011;8478;49.208;8.806;2023-04-02T08:37:54;3.20;;;3.00;;
2049;SDS011;8478;49.208;8.806;2023-04-02T08:43:05;2.83;;;2.60;;
2049;SDS011;8478;49.208;8.806;2023-04-02T08:45:53;3.10;;;3.00;;
2049;SDS011;8478;49.208;8.806;2023-04-02T08:48:56;2.90;;;2.80;;
2049;SDS011;8478;49.208;8.806;2023-04-02T08:51:25;3.10;;;2.90;;
2049;SDS011;8478;49.208;8.806;2023-04-02T08:53:55;3.07;;;2.87;;
2049;SDS011;8478;49.208;8.806;2023-04-02T08:56:35;2.87;;;2.67;;
2049;SDS011;8478;49.208;8.806;2023-04-02T08:59:14;3.13;;;2.90;;
2049;SDS011;8478;49.208;8.806;2023-04-02T09:04:37;3.03;;;2.93;;
2049;SDS011;8478;49.208;8.806;2023-04-02T09:07:04;3.63;;;3.43;;
2049;SDS011;8478;49.208;8.806;2023-04-02T09:09:31;3.80;;;3.50;;
2049;SDS011;8478;49.208;8.806;2023-04-02T09:12:01;3.50;;;3.30;;
2049;SDS011;8478;49.208;8.806;2023-04-02T09:14:35;3.77;;;3.57;;
2049;SDS011;8478;49.208;8.806;2023-04-02T09:17:17;3.00;;;2.70;;
2049;SDS011;8478;49.208;8.806;2023-04-02T09:20:03;3.97;;;3.53;;
2049;SDS011;8478;49.208;8.806;2023-04-02T09:22:43;3.63;;;3.33;;
2049;SDS011;8478;49.208;8.806;2023-04-02T09:25:12;3.10;;;2.90;;
2049;SDS011;8478;49.208;8.806;2023-04-02T09:27:44;3.90;;;3.70;;
2049;SDS011;8478;49.208;8.806;2023-04-02T09:32:52;3.53;;;3.33;;
2049;SDS011;8478;49.208;8.806;2023-04-02T09:35:21;3.53;;;3.23;;
2049;SDS011;8478;49.208;8.806;2023-04-02T09:43:22;3.60;;;3.40;;
2049;SDS011;8478;49.208;8.806;2023-04-02T09:48:43;4.13;;;3.93;;
2049;SDS011;8478;49.208;8.806;2023-04-02T09:51:36;3.83;;;3.63;;
2049;SDS011;8478;49.208;8.806;2023-04-02T09:56:31;3.80;;;3.50;;
2049;SDS011;8478;49.208;8.806;2023-04-02T10:01:55;3.50;;;3.30;;
2049;SDS011;8478;49.208;8.806;2023-04-02T10:06:58;3.10;;;3.00;;
2049;SDS011;8478;49.208;8.806;2023-04-02T10:09:28;3.50;;;3.30;;
2049;SDS011;8478;49.208;8.806;2023-04-02T10:11:59;3.37;;;3.17;;
2049;SDS011;8478;49.208;8.806;2023-04-02T10:14:46;3.43;;;3.23;;
2049;SDS011;8478;49.208;8.806;2023-04-02T10:17:17;3.37;;;3.17;;
2049;SDS011;8478;49.208;8.806;2023-04-02T10:19:56;3.20;;;3.00;;
2049;SDS011;8478;49.208;8.806;2023-04-02T10:22:26;3.40;;;3.20;;
2049;SDS011;8478;49.208;8.806;2023-04-02T10:24:52;3.23;;;3.10;;
2049;SDS011;8478;49.208;8.806;2023-04-02T10:35:33;3.43;;;3.23;;
2049;SDS011;8478;49.208;8.806;2023-04-02T10:38:08;3.40;;;3.20;;
2049;SDS011;8478;49.208;8.806;2023-04-02T10:44:02;3.37;;;3.20;;
2049;SDS011;8478;49.208;8.806;2023-04-02T10:46:19;3.37;;;3.17;;
2049;SDS011;8478;49.208;8.806;2023-04-02T10:52:03;3.30;;;3.00;;
2049;SDS011;8478;49.208;8.806;2023-04-02T10:54:36;3.47;;;3.27;;
2049;SDS011;8478;49.208;8.806;2023-04-02T11:05:39;3.20;;;3.10;;
2049;SDS011;8478;49.208;8.806;2023-04-02T11:08:18;3.57;;;3.37;;
2049;SDS011;8478;49.208;8.806;2023-04-02T11:16:21;3.20;;;3.00;;
2049;SDS011;8478;49.208;8.806;2023-04-02T11:21:42;3.37;;;3.07;;
2049;SDS011;8478;49.208;8.806;2023-04-02T11:24:22;3.23;;;3.03;;
2049;SDS011;8478;49.208;8.806;2023-04-02T11:27:19;3.50;;;3.30;;
2049;SDS011;8478;49.208;8.806;2023-04-02T11:32:52;5.83;;;5.33;;
2049;SDS011;8478;49.208;8.806;2023-04-02T11:37:57;7.60;;;6.97;;
2049;SDS011;8478;49.208;8.806;2023-04-02T11:48:42;5.10;;;4.70;;
2049;SDS011;8478;49.208;8.806;2023-04-02T11:53:47;6.87;;;6.37;;
2049;SDS011;8478;49.208;8.806;2023-04-02T12:10:05;5.90;;;5.50;;
2049;SDS011;8478;49.208;8.806;2023-04-02T12:12:52;6.10;;;5.60;;
2049;SDS011;8478;49.208;8.806;2023-04-02T12:15:42;6.43;;;5.93;;
2049;SDS011;8478;49.208;8.806;2023-04-02T12:18:13;6.13;;;5.63;;
2049;SDS011;8478;49.208;8.806;2023-04-02T12:20:48;5.90;;;5.50;;
2049;SDS011;8478;49.208;8.806;2023-04-02T12:23:21;5.37;;;5.00;;
2049;SDS011;8478;49.208;8.806;2023-04-02T12:28:28;5.27;;;4.97;;
2049;SDS011;8478;49.208;8.806;2023-04-02T12:31:02;4.57;;;4.30;;
2049;SDS011;8478;49.208;8.806;2023-04-02T12:33:41;4.37;;;4.17;;
2049;SDS011;8478;49.208;8.806;2023-04-02T12:38:51;4.80;;;4.50;;
2049;SDS011;8478;49.208;8.806;2023-04-02T12:46:27;4.80;;;4.40;;
2049;SDS011;8478;49.208;8.806;2023-04-02T12:48:57;5.20;;;4.80;;
2049;SDS011;8478;49.208;8.806;2023-04-02T12:51:30;4.60;;;4.30;;
2049;SDS011;8478;49.208;8.806;2023-04-02T12:53:56;4.03;;;3.83;;
2049;SDS011;8478;49.208;8.806;2023-04-02T12:56:22;4.03;;;3.77;;
2049;SDS011;8478;49.208;8.806;2023-04-02T12:58:55;4.37;;;3.97;;
2049;SDS011;8478;49.208;8.806;2023-04-02T13:01:26;4.20;;;3.90;;
2049;SDS011;8478;49.208;8.806;2023-04-02T13:06:26;5.00;;;4.70;;
2049;SDS011;8478;49.208;8.806;2023-04-02T13:08:52;4.37;;;4.10;;
2049;SDS011;8478;49.208;8.806;2023-04-02T13:11:19;4.00;;;3.80;;
2049;SDS011;8478;49.208;8.806;2023-04-02T13:13:46;3.83;;;3.63;;
2049;SDS011;8478;49.208;8.806;2023-04-02T13:18:43;4.00;;;3.80;;
2049;SDS011;8478;49.208;8.806;2023-04-02T13:23:44;3.90;;;3.70;;
2049;SDS011;8478;49.208;8.806;2023-04-02T13:28:41;3.60;;;3.40;;
2049;SDS011;8478;49.208;8.806;2023-04-02T13:31:18;3.67;;;3.47;;
2049;SDS011;8478;49.208;8.806;2023-04-02T13:33:44;3.67;;;3.47;;
2049;SDS011;8478;49.208;8.806;2023-04-02T13:36:13;3.90;;;3.70;;
2049;SDS011;8478;49.208;8.806;2023-04-02T13:38:39;3.67;;;3.47;;
2049;SDS011;8478;49.208;8.806;2023-04-02T13:41:05;4.10;;;3.70;;
2049;SDS011;8478;49.208;8.806;2023-04-02T13:43:48;3.43;;;3.10;;
2049;SDS011;8478;49.208;8.806;2023-04-02T13:46:19;3.70;;;3.50;;
2049;SDS011;8478;49.208;8.806;2023-04-02T13:48:47;3.50;;;3.30;;
2049;SDS011;8478;49.208;8.806;2023-04-02T13:51:17;3.60;;;3.40;;
2049;SDS011;8478;49.208;8.806;2023-04-02T13:53:46;3.10;;;2.90;;
2049;SDS011;8478;49.208;8.806;2023-04-02T13:56:23;3.07;;;2.90;;
2049;SDS011;8478;49.208;8.806;2023-04-02T13:58:49;3.47;;;3.27;;
2049;SDS011;8478;49.208;8.806;2023-04-02T14:01:16;3.60;;;3.30;;
2049;SDS011;8478;49.208;8.806;2023-04-02T14:03:44;3.10;;;3.00;;
2049;SDS011;8478;49.208;8.806;2023-04-02T14:12:24;3.57;;;3.27;;
2049;SDS011;8478;49.208;8.806;2023-04-02T14:18:04;3.07;;;2.80;;
2049;SDS011;8478;49.208;8.806;2023-04-02T14:20:49;3.00;;;2.80;;
2049;SDS011;8478;49.208;8.806;2023-04-02T14:23:33;2.90;;;2.70;;
2049;SDS011;8478;49.208;8.806;2023-04-02T14:32:05;3.30;;;3.10;;
2049;SDS011;8478;49.208;8.806;2023-04-02T14:37:38;3.33;;;3.13;;
2049;SDS011;8478;49.208;8.806;2023-04-02T14:51:03;3.57;;;3.37;;
2049;SDS011;8478;49.208;8.806;2023-04-02T14:53:47;3.00;;;2.90;;
2049;SDS011;8478;49.208;8.806;2023-04-02T14:56:28;3.17;;;2.97;;
2049;SDS011;8478;49.208;8.806;2023-04-02T15:01:44;3.10;;;2.90;;
2049;SDS011;8478;49.208;8.806;2023-04-02T15:04:22;3.20;;;3.00;;
2049;SDS011;8478;49.208;8.806;2023-04-02T15:07:04;2.90;;;2.80;;
2049;SDS011;8478;49.208;8.806;2023-04-02T15:09:40;3.03;;;2.93;;
2049;SDS011;8478;49.208;8.806;2023-04-02T15:12:24;2.97;;;2.87;;
2049;SDS011;8478;49.208;8.806;2023-04-02T15:15:01;3.07;;;2.90;;
2049;SDS011;8478;49.208;8.806;2023-04-02T15:17:38;3.40;;;3.20;;
2049;SDS011;8478;49.208;8.806;2023-04-02T15:20:22;3.20;;;3.03;;
2049;SDS011;8478;49.208;8.806;2023-04-02T15:23:32;3.20;;;2.80;;
2049;SDS011;8478;49.208;8.806;2023-04-02T15:31:14;2.87;;;2.77;;
2049;SDS011;8478;49.208;8.806;2023-04-02T15:33:44;2.77;;;2.67;;
2049;SDS011;8478;49.208;8.806;2023-04-02T15:39:42;2.90;;;2.80;;
2049;SDS011;8478;49.208;8.806;2023-04-02T15:44:33;3.80;;;3.60;;
2049;SDS011;8478;49.208;8.806;2023-04-02T15:53:01;5.60;;;5.20;;
2049;SDS011;8478;49.208;8.806;2023-04-02T16:01:14;4.40;;;4.10;;
2049;SDS011;8478;49.208;8.806;2023-04-02T16:06:27;5.10;;;4.60;;
2049;SDS011;8478;49.208;8.806;2023-04-02T16:11:34;3.97;;;3.67;;
2049;SDS011;8478;49.208;8.806;2023-04-02T16:14:09;3.73;;;3.43;;
2049;SDS011;8478;49.208;8.806;2023-04-02T16:16:45;4.20;;;3.80;;
2049;SDS011;8478;49.208;8.806;2023-04-02T16:19:21;3.50;;;3.30;;
2049;SDS011;8478;49.208;8.806;2023-04-02T16:22:15;3.80;;;3.60;;
2049;SDS011;8478;49.208;8.806;2023-04-02T16:25:00;4.07;;;3.77;;
2049;SDS011;8478;49.208;8.806;2023-04-02T16:27:37;4.90;;;4.60;;
2049;SDS011;8478;49.208;8.806;2023-04-02T16:30:32;3.83;;;3.63;;
2049;SDS011;8478;49.208;8.806;2023-04-02T16:44:22;3.53;;;3.33;;
2049;SDS011;8478;49.208;8.806;2023-04-02T16:47:01;3.80;;;3.60;;
2049;SDS011;8478;49.208;8.806;2023-04-02T16:52:21;3.37;;;3.17;;
2049;SDS011;8478;49.208;8.806;2023-04-02T16:55:20;3.90;;;3.70;;
2049;SDS011;8478;49.208;8.806;2023-04-02T17:00:53;3.77;;;3.57;;
2049;SDS011;8478;49.208;8.806;2023-04-02T17:08:39;6.10;;;5.70;;
2049;SDS011;8478;49.208;8.806;2023-04-02T17:11:08;5.10;;;4.80;;
2049;SDS011;8478;49.208;8.806;2023-04-02T17:16:42;4.70;;;4.40;;
2049;SDS011;8478;49.208;8.806;2023-04-02T17:19:11;5.27;;;4.80;;
2049;SDS011;8478;49.208;8.806;2023-04-02T17:21:39;4.60;;;4.37;;
2049;SDS011;8478;49.208;8.806;2023-04-02T17:26:41;4.37;;;4.17;;
2049;SDS011;8478;49.208;8.806;2023-04-02T17:29:18;4.70;;;4.40;;
2049;SDS011;8478;49.208;8.806;2023-04-02T17:31:47;4.10;;;3.90;;
2049;SDS011;8478;49.208;8.806;2023-04-02T17:34:15;4.20;;;4.00;;
2049;SDS011;8478;49.208;8.806;2023-04-02T17:36:44;4.63;;;4.33;;
2049;SDS011;8478;49.208;8.806;2023-04-02T17:42:18;4.30;;;4.10;;
2049;SDS011;8478;49.208;8.806;2023-04-02T17:47:22;5.40;;;5.00;;
2049;SDS011;8478;49.208;8.806;2023-04-02T17:50:09;4.97;;;4.67;;
2049;SDS011;8478;49.208;8.806;2023-04-02T17:58:07;4.77;;;4.47;;
2049;SDS011;8478;49.208;8.806;2023-04-02T18:08:56;5.03;;;4.73;;
2049;SDS011;8478;49.208;8.806;2023-04-02T18:17:46;5.00;;;4.63;;
2049;SDS011;8478;49.208;8.806;2023-04-02T18:20:38;4.63;;;4.33;;
2049;SDS011;8478;49.208;8.806;2023-04-02T18:26:15;5.30;;;4.80;;
2049;SDS011;8478;49.208;8.806;2023-04-02T18:32:12;5.23;;;4.80;;
2049;SDS011;8478;49.208;8.806;2023-04-02T18:44:05;5.50;;;5.10;;
2049;SDS011;8478;49.208;8.806;2023-04-02T18:51:44;5.03;;;4.73;;
2049;SDS011;8478;49.208;8.806;2023-04-02T18:54:22;5.97;;;5.40;;
2049;SDS011;8478;49.208;8.806;2023-04-02T18:57:01;5.40;;;5.10;;
2049;SDS011;8478;49.208;8.806;2023-04-02T19:02:59;5.37;;;5.07;;
2049;SDS011;8478;49.208;8.806;2023-04-02T19:10:47;5.00;;;4.70;;
2049;SDS011;8478;49.208;8.806;2023-04-02T19:13:21;4.80;;;4.60;;
2049;SDS011;8478;49.208;8.806;2023-04-02T19:18:19;4.57;;;4.30;;
2049;SDS011;8478;49.208;8.806;2023-04-02T19:21:15;4.83;;;4.50;;
2049;SDS011;8478;49.208;8.806;2023-04-02T19:26:43;4.97;;;4.67;;
2049;SDS011;8478;49.208;8.806;2023-04-02T19:34:37;4.70;;;4.40;;
2049;SDS011;8478;49.208;8.806;2023-04-02T19:37:15;4.73;;;4.43;;
2049;SDS011;8478;49.208;8.806;2023-04-02T19:40:08;5.43;;;5.00;;
2049;SDS011;8478;49.208;8.806;2023-04-02T19:42:47;4.87;;;4.57;;
2049;SDS011;8478;49.208;8.806;2023-04-02T19:45:20;5.20;;;4.90;;
2049;SDS011;8478;49.208;8.806;2023-04-02T19:47:49;5.30;;;4.90;;
2049;SDS011;8478;49.208;8.806;2023-04-02T19:50:15;5.27;;;4.97;;
2049;SDS011;8478;49.208;8.806;2023-04-02T19:52:40;4.77;;;4.57;;
2049;SDS011;8478;49.208;8.806;2023-04-02T19:55:06;5.20;;;4.80;;
2049;SDS011;8478;49.208;8.806;2023-04-02T19:57:32;4.60;;;4.30;;
2049;SDS011;8478;49.208;8.806;2023-04-02T19:59:58;5.07;;;4.77;;
2049;SDS011;8478;49.208;8.806;2023-04-02T20:02:23;5.73;;;5.23;;
2049;SDS011;8478;49.208;8.806;2023-04-02T20:04:49;5.27;;;4.97;;
2049;SDS011;8478;49.208;8.806;2023-04-02T20:07:15;6.03;;;5.57;;
2049;SDS011;8478;49.208;8.806;2023-04-02T20:09:41;6.83;;;6.33;;
2049;SDS011;8478;49.208;8.806;2023-04-02T20:12:06;6.00;;;5.60;;
2049;SDS011;8478;49.208;8.806;2023-04-02T20:14:32;5.00;;;4.70;;
2049;SDS011;8478;49.208;8.806;2023-04-02T20:16:57;5.73;;;5.33;;
2049;SDS011;8478;49.208;8.806;2023-04-02T20:19:23;5.27;;;4.97;;
2049;SDS011;8478;49.208;8.806;2023-04-02T20:21:49;4.80;;;4.50;;
2049;SDS011;8478;49.208;8.806;2023-04-02T20:24:15;4.97;;;4.67;;
2049;SDS011;8478;49.208;8.806;2023-04-02T20:26:41;5.40;;;5.00;;
2049;SDS011;8478;49.208;8.806;2023-04-02T20:29:07;5.10;;;4.60;;
2049;SDS011;8478;49.208;8.806;2023-04-02T20:31:32;5.30;;;4.90;;
2049;SDS011;8478;49.208;8.806;2023-04-02T20:33:58;5.40;;;5.00;;
2049;SDS011;8478;49.208;8.806;2023-04-02T20:36:24;5.40;;;5.00;;
2049;SDS011;8478;49.208;8.806;2023-04-02T20:38:50;5.53;;;5.13;;
2049;SDS011;8478;49.208;8.806;2023-04-02T20:41:16;5.33;;;4.93;;
2049;SDS011;8478;49.208;8.806;2023-04-02T20:43:43;5.20;;;4.83;;
2049;SDS011;8478;49.208;8.806;2023-04-02T20:46:09;4.30;;;4.10;;
2049;SDS011;8478;49.208;8.806;2023-04-02T20:48:36;5.63;;;5.13;;
2049;SDS011;8478;49.208;8.806;2023-04-02T20:51:03;5.50;;;5.00;;
2049;SDS011;8478;49.208;8.806;2023-04-02T20:53:31;5.00;;;4.60;;
2049;SDS011;8478;49.208;8.806;2023-04-02T20:58:38;4.97;;;4.67;;
2049;SDS011;8478;49.208;8.806;2023-04-02T21:03:53;5.80;;;5.40;;
2049;SDS011;8478;49.208;8.806;2023-04-02T21:06:24;6.20;;;5.80;;
2049;SDS011;8478;49.208;8.806;2023-04-02T21:08:52;5.40;;;5.03;;
2049;SDS011;8478;49.208;8.806;2023-04-02T21:11:18;5.20;;;4.80;;
2049;SDS011;8478;49.208;8.806;2023-04-02T21:13:45;5.33;;;4.83;;
2049;SDS011;8478;49.208;8.806;2023-04-02T21:16:21;6.70;;;6.20;;
2049;SDS011;8478;49.208;8.806;2023-04-02T21:18:49;5.03;;;4.73;;
2049;SDS011;8478;49.208;8.806;2023-04-02T21:21:16;5.63;;;5.30;;
2049;SDS011;8478;49.208;8.806;2023-04-02T21:23:43;5.83;;;5.27;;
2049;SDS011;8478;49.208;8.806;2023-04-02T21:26:13;6.40;;;6.00;;
2049;SDS011;8478;49.208;8.806;2023-04-02T21:28:41;5.60;;;5.20;;
2049;SDS011;8478;49.208;8.806;2023-04-02T21:31:08;5.20;;;4.80;;
2049;SDS011;8478;49.208;8.806;2023-04-02T21:33:40;5.97;;;5.50;;
2049;SDS011;8478;49.208;8.806;2023-04-02T21:36:09;5.57;;;5.17;;
2049;SDS011;8478;49.208;8.806;2023-04-02T21:38:40;5.37;;;5.07;;
2049;SDS011;8478;49.208;8.806;2023-04-02T21:43:35;6.40;;;5.80;;
2049;SDS011;8478;49.208;8.806;2023-04-02T21:46:01;5.07;;;4.70;;
2049;SDS011;8478;49.208;8.806;2023-04-02T21:48:28;4.90;;;4.60;;
2049;SDS011;8478;49.208;8.806;2023-04-02T21:51:02;5.47;;;5.07;;
2049;SDS011;8478;49.208;8.806;2023-04-02T21:53:29;4.60;;;4.30;;
2049;SDS011;8478;49.208;8.806;2023-04-02T21:56:08;4.83;;;4.53;;
2049;SDS011;8478;49.208;8.806;2023-04-02T21:58:38;4.90;;;4.50;;